createdAt,value
2018-06-19T00:00:05.429Z,50.28
2018-06-19T00:01:05.425Z,49.99
2018-06-19T00:02:05.497Z,49.99
2018-06-19T00:03:05.456Z,50.18
2018-06-19T00:04:05.496Z,49.70
2018-06-19T00:05:05.538Z,49.80
2018-06-19T00:06:05.522Z,49.99
2018-06-19T00:07:05.534Z,49.60
2018-06-19T00:08:05.533Z,49.80
2018-06-19T00:09:05.543Z,50.38
2018-06-19T00:10:05.575Z,50.38
2018-06-19T00:11:05.572Z,50.28
2018-06-19T00:12:05.633Z,50.38
2018-06-19T00:13:05.607Z,50.28
2018-06-19T00:14:05.608Z,50.18
2018-06-19T00:15:05.653Z,50.38
2018-06-19T00:16:05.642Z,50.28
2018-06-19T00:17:05.688Z,50.28
2018-06-19T00:18:05.702Z,50.48
2018-06-19T00:19:05.683Z,50.38
2018-06-19T00:20:05.722Z,50.38
2018-06-19T00:21:05.732Z,50.38
2018-06-19T00:22:05.778Z,50.48
2018-06-19T00:23:05.741Z,50.38
2018-06-19T00:24:05.759Z,50.18
2018-06-19T00:25:05.786Z,50.86
2018-06-19T00:26:05.803Z,50.28
2018-06-19T00:27:05.843Z,50.38
2018-06-19T00:28:05.831Z,50.57
2018-06-19T00:29:05.832Z,50.38
2018-06-19T00:30:05.925Z,50.48
2018-06-19T00:31:05.855Z,50.18
2018-06-19T00:32:05.939Z,50.48
2018-06-19T00:33:05.889Z,50.76
2018-06-19T00:34:05.931Z,50.38
2018-06-19T00:35:05.911Z,50.57
2018-06-19T00:36:05.923Z,50.57
2018-06-19T00:37:05.994Z,51.06
2018-06-19T00:38:06.010Z,50.86
2018-06-19T00:39:05.984Z,51.15
2018-06-19T00:40:05.998Z,51.06
2018-06-19T00:41:06.045Z,50.86
2018-06-19T00:42:06.034Z,50.86
2018-06-19T00:43:06.026Z,50.65
2018-06-19T00:44:06.040Z,50.86
2018-06-19T00:45:06.113Z,50.96
2018-06-19T00:46:06.109Z,51.06
2018-06-19T00:47:06.128Z,51.35
2018-06-19T00:48:06.116Z,51.73
2018-06-19T00:49:06.118Z,51.06
2018-06-19T00:50:06.139Z,51.35
2018-06-19T00:51:06.146Z,51.44
2018-06-19T00:52:06.207Z,51.73
2018-06-19T00:53:06.227Z,52.02
2018-06-19T00:54:06.184Z,51.64
2018-06-19T00:55:06.204Z,51.73
2018-06-19T00:56:06.229Z,52.02
2018-06-19T00:57:06.228Z,52.41
2018-06-19T00:58:06.279Z,52.00
2018-06-19T00:59:06.319Z,52.19
2018-06-19T01:00:06.342Z,52.58
2018-06-19T01:01:06.318Z,52.97
2018-06-19T01:02:06.310Z,52.67
2018-06-19T01:03:06.317Z,52.77
2018-06-19T01:04:06.330Z,53.45
2018-06-19T01:05:06.427Z,53.35
2018-06-19T01:06:06.360Z,53.25
2018-06-19T01:07:06.375Z,53.06
2018-06-19T01:08:06.406Z,52.77
2018-06-19T01:09:06.430Z,53.06
2018-06-19T01:10:06.455Z,53.45
2018-06-19T01:11:06.481Z,53.25
2018-06-19T01:12:06.488Z,53.16
2018-06-19T01:13:06.460Z,53.35
2018-06-19T01:14:06.485Z,53.16
2018-06-19T01:15:06.531Z,53.83
2018-06-19T01:16:06.504Z,53.74
2018-06-19T01:17:06.644Z,53.35
2018-06-19T01:18:06.575Z,53.74
2018-06-19T01:19:06.582Z,53.93
2018-06-19T01:20:06.557Z,53.93
2018-06-19T01:21:06.578Z,54.03
2018-06-19T01:22:06.591Z,54.41
2018-06-19T01:23:06.623Z,54.41
2018-06-19T01:24:06.654Z,54.90
2018-06-19T01:25:06.651Z,54.61
2018-06-19T01:26:06.653Z,54.51
2018-06-19T01:27:06.660Z,54.41
2018-06-19T01:28:06.687Z,54.51
2018-06-19T01:29:06.766Z,54.71
2018-06-19T01:30:06.727Z,55.09
2018-06-19T01:31:06.713Z,54.90
2018-06-19T01:32:06.729Z,54.99
2018-06-19T01:33:06.747Z,55.19
2018-06-19T01:34:06.792Z,55.57
2018-06-19T01:35:06.852Z,55.19
2018-06-19T01:36:06.802Z,55.19
2018-06-19T01:37:06.807Z,55.26
2018-06-19T01:38:06.837Z,55.35
2018-06-19T01:39:06.835Z,55.19
2018-06-19T01:40:06.876Z,55.29
2018-06-19T01:41:06.918Z,55.07
2018-06-19T01:42:06.875Z,55.09
2018-06-19T01:43:06.897Z,55.07
2018-06-19T01:44:06.908Z,55.26
2018-06-19T01:45:06.918Z,55.65
2018-06-19T01:46:06.986Z,55.83
2018-06-19T01:47:06.956Z,55.74
2018-06-19T01:48:06.969Z,55.83
2018-06-19T01:49:06.991Z,56.15
2018-06-19T01:50:07.015Z,55.93
2018-06-19T01:51:07.033Z,56.13
2018-06-19T01:52:07.034Z,56.32
2018-06-19T01:53:07.059Z,55.93
2018-06-19T01:54:07.041Z,55.67
2018-06-19T01:55:07.088Z,56.22
2018-06-19T01:56:07.071Z,56.03
2018-06-19T01:57:07.091Z,56.13
2018-06-19T01:58:07.153Z,56.13
2018-06-19T01:59:07.158Z,56.13
2018-06-19T02:00:07.151Z,56.13
2018-06-19T02:01:07.159Z,56.41
2018-06-19T02:02:07.172Z,56.61
2018-06-19T02:03:07.195Z,56.80
2018-06-19T02:04:07.277Z,56.25
2018-06-19T02:05:07.211Z,56.25
2018-06-19T02:06:07.212Z,56.05
2018-06-19T02:07:07.227Z,56.51
2018-06-19T02:08:07.248Z,56.41
2018-06-19T02:09:07.338Z,56.80
2018-06-19T02:10:07.322Z,57.09
2018-06-19T02:11:07.314Z,56.80
2018-06-19T02:12:07.309Z,56.71
2018-06-19T02:13:07.313Z,56.61
2018-06-19T02:14:07.324Z,56.41
2018-06-19T02:15:07.363Z,56.90
2018-06-19T02:16:07.388Z,56.80
2018-06-19T02:17:07.371Z,56.61
2018-06-19T02:18:07.384Z,56.71
2018-06-19T02:19:07.402Z,57.57
2018-06-19T02:20:07.417Z,57.38
2018-06-19T02:21:07.506Z,57.09
2018-06-19T02:22:07.445Z,56.61
2018-06-19T02:23:07.468Z,56.99
2018-06-19T02:24:07.472Z,56.99
2018-06-19T02:25:07.486Z,57.09
2018-06-19T02:26:07.531Z,57.09
2018-06-19T02:27:07.538Z,57.29
2018-06-19T02:28:07.563Z,57.19
2018-06-19T02:29:07.550Z,57.19
2018-06-19T02:30:07.565Z,57.19
2018-06-19T02:31:07.564Z,57.57
2018-06-19T02:32:07.581Z,57.48
2018-06-19T02:33:07.624Z,57.19
2018-06-19T02:34:07.613Z,57.29
2018-06-19T02:35:07.674Z,57.48
2018-06-19T02:36:07.667Z,57.77
2018-06-19T02:37:07.691Z,57.57
2018-06-19T02:38:07.666Z,57.87
2018-06-19T02:39:07.682Z,57.67
2018-06-19T02:40:07.722Z,57.57
2018-06-19T02:41:07.744Z,57.57
2018-06-19T02:42:07.720Z,57.96
2018-06-19T02:43:07.745Z,57.57
2018-06-19T02:44:07.779Z,57.87
2018-06-19T02:45:07.780Z,58.83
2018-06-19T02:46:07.900Z,58.54
2018-06-19T02:47:07.805Z,58.54
2018-06-19T02:48:07.807Z,58.15
2018-06-19T02:49:07.822Z,58.35
2018-06-19T02:50:07.838Z,58.54
2018-06-19T02:51:07.876Z,58.54
2018-06-19T02:52:07.873Z,59.02
2018-06-19T02:53:07.931Z,59.09
2018-06-19T02:54:07.906Z,59.02
2018-06-19T02:55:07.916Z,59.19
2018-06-19T02:56:07.925Z,59.38
2018-06-19T02:57:07.937Z,58.54
2018-06-19T02:58:07.975Z,59.12
2018-06-19T02:59:08.023Z,59.22
2018-06-19T03:00:07.997Z,59.31
2018-06-19T03:01:07.994Z,59.22
2018-06-19T03:02:07.999Z,58.35
2018-06-19T03:03:08.020Z,59.02
2018-06-19T03:04:08.062Z,59.31
2018-06-19T03:05:08.071Z,59.02
2018-06-19T03:06:08.075Z,59.22
2018-06-19T03:07:08.075Z,58.15
2018-06-19T03:08:08.090Z,59.22
2018-06-19T03:09:08.187Z,59.31
2018-06-19T03:10:08.107Z,59.12
2018-06-19T03:11:08.135Z,58.73
2018-06-19T03:12:08.144Z,58.93
2018-06-19T03:13:08.155Z,58.35
2018-06-19T03:14:08.192Z,58.93
2018-06-19T03:15:08.236Z,58.54
2018-06-19T03:16:08.259Z,58.25
2018-06-19T03:17:08.222Z,58.54
2018-06-19T03:18:08.242Z,58.15
2018-06-19T03:19:08.247Z,59.31
2018-06-19T03:20:08.298Z,58.45
2018-06-19T03:21:08.261Z,58.54
2018-06-19T03:22:08.279Z,58.45
2018-06-19T03:23:08.292Z,58.45
2018-06-19T03:24:08.309Z,58.93
2018-06-19T03:25:08.362Z,58.83
2018-06-19T03:26:08.342Z,58.45
2018-06-19T03:27:08.349Z,58.54
2018-06-19T03:28:08.365Z,58.35
2018-06-19T03:29:08.391Z,58.35
2018-06-19T03:30:08.447Z,58.25
2018-06-19T03:31:08.403Z,58.64
2018-06-19T03:32:08.478Z,58.45
2018-06-19T03:33:08.443Z,58.35
2018-06-19T03:34:08.460Z,58.45
2018-06-19T03:35:08.464Z,58.54
2018-06-19T03:36:08.483Z,59.22
2018-06-19T03:37:08.537Z,59.22
2018-06-19T03:38:08.504Z,59.51
2018-06-19T03:39:08.555Z,59.70
2018-06-19T03:40:08.561Z,60.47
2018-06-19T03:41:08.556Z,60.96
2018-06-19T03:42:08.575Z,60.67
2018-06-19T03:43:08.606Z,60.96
2018-06-19T03:44:08.638Z,61.41
2018-06-19T03:45:08.601Z,62.86
2018-06-19T03:46:08.747Z,63.18
2018-06-19T03:47:08.642Z,62.70
2018-06-19T03:48:08.654Z,62.95
2018-06-19T03:49:08.664Z,63.73
2018-06-19T03:50:08.670Z,63.82
2018-06-19T03:51:08.690Z,64.21
2018-06-19T03:52:08.737Z,64.01
2018-06-19T03:53:08.714Z,64.59
2018-06-19T03:54:08.749Z,64.31
2018-06-19T03:55:08.747Z,64.40
2018-06-19T03:56:08.762Z,64.50
2018-06-19T03:57:08.800Z,65.95
2018-06-19T03:58:08.826Z,65.72
2018-06-19T03:59:08.802Z,65.82
2018-06-19T04:00:08.809Z,66.69
2018-06-19T04:01:08.827Z,68.04
2018-06-19T04:02:08.840Z,67.85
2018-06-19T04:03:08.953Z,67.85
2018-06-19T04:04:08.872Z,67.52
2018-06-19T04:05:08.878Z,67.55
2018-06-19T04:06:08.913Z,67.36
2018-06-19T04:07:08.907Z,67.36
2018-06-19T04:08:08.975Z,67.27
2018-06-19T04:09:08.943Z,68.10
2018-06-19T04:10:08.954Z,67.36
2018-06-19T04:11:08.968Z,67.65
2018-06-19T04:12:08.974Z,68.29
2018-06-19T04:13:09.133Z,67.81
2018-06-19T04:14:09.038Z,67.52
2018-06-19T04:15:09.033Z,67.14
2018-06-19T04:16:09.094Z,66.94
2018-06-19T04:17:09.049Z,67.52
2018-06-19T04:18:09.068Z,68.01
2018-06-19T04:19:09.083Z,67.85
2018-06-19T04:20:09.084Z,67.14
2018-06-19T04:21:09.171Z,67.33
2018-06-19T04:22:09.133Z,67.36
2018-06-19T04:23:09.136Z,67.17
2018-06-19T04:24:09.139Z,66.49
2018-06-19T04:25:09.153Z,66.49
2018-06-19T04:26:09.205Z,66.88
2018-06-19T04:27:09.205Z,66.85
2018-06-19T04:28:09.235Z,66.20
2018-06-19T04:29:09.222Z,66.30
2018-06-19T04:30:09.228Z,66.59
2018-06-19T04:31:09.235Z,66.30
2018-06-19T04:32:09.260Z,66.69
2018-06-19T04:33:09.289Z,66.40
2018-06-19T04:34:09.312Z,66.40
2018-06-19T04:35:09.293Z,66.11
2018-06-19T04:36:09.300Z,66.49
2018-06-19T04:37:09.320Z,66.49
2018-06-19T04:38:09.331Z,66.30
2018-06-19T04:39:09.374Z,66.49
2018-06-19T04:40:09.356Z,65.91
2018-06-19T04:41:09.366Z,65.91
2018-06-19T04:42:09.479Z,65.34
2018-06-19T04:43:09.412Z,65.82
2018-06-19T04:44:09.421Z,65.63
2018-06-19T04:45:09.430Z,65.91
2018-06-19T04:46:09.459Z,65.53
2018-06-19T04:47:09.481Z,65.43
2018-06-19T04:48:09.475Z,65.34
2018-06-19T04:49:09.476Z,65.14
2018-06-19T04:50:09.502Z,64.66
2018-06-19T04:51:09.534Z,64.86
2018-06-19T04:52:09.558Z,64.47
2018-06-19T04:53:09.534Z,64.37
2018-06-19T04:54:09.553Z,64.76
2018-06-19T04:55:09.561Z,63.98
2018-06-19T04:56:09.649Z,63.98
2018-06-19T04:57:09.618Z,63.98
2018-06-19T04:58:09.639Z,64.37
2018-06-19T04:59:09.639Z,63.89
2018-06-19T05:00:09.652Z,63.70
2018-06-19T05:01:09.658Z,64.18
2018-06-19T05:02:09.669Z,64.08
2018-06-19T05:03:09.744Z,63.89
2018-06-19T05:04:09.688Z,63.79
2018-06-19T05:05:09.706Z,63.40
2018-06-19T05:06:09.741Z,63.60
2018-06-19T05:07:09.726Z,63.63
2018-06-19T05:08:09.782Z,62.76
2018-06-19T05:09:09.758Z,63.15
2018-06-19T05:10:09.782Z,62.86
2018-06-19T05:11:09.835Z,63.34
2018-06-19T05:12:09.794Z,63.15
2018-06-19T05:13:09.819Z,63.05
2018-06-19T05:14:09.851Z,62.86
2018-06-19T05:15:09.849Z,62.86
2018-06-19T05:16:09.895Z,63.05
2018-06-19T05:17:09.864Z,62.76
2018-06-19T05:18:09.887Z,63.15
2018-06-19T05:19:09.893Z,62.95
2018-06-19T05:20:09.965Z,62.76
2018-06-19T05:21:09.947Z,62.57
2018-06-19T05:22:09.959Z,62.37
2018-06-19T05:23:09.951Z,62.37
2018-06-19T05:24:09.961Z,61.51
2018-06-19T05:25:09.978Z,61.22
2018-06-19T05:26:09.995Z,61.80
2018-06-19T05:27:10.039Z,61.51
2018-06-19T05:28:10.028Z,61.60
2018-06-19T05:29:10.036Z,61.41
2018-06-19T05:30:10.045Z,61.41
2018-06-19T05:31:10.073Z,61.51
2018-06-19T05:32:10.128Z,61.51
2018-06-19T05:33:10.088Z,61.99
2018-06-19T05:34:10.156Z,62.37
2018-06-19T05:35:10.118Z,61.41
2018-06-19T05:36:10.131Z,61.41
2018-06-19T05:37:10.146Z,62.08
2018-06-19T05:38:10.169Z,62.18
2018-06-19T05:39:10.226Z,62.28
2018-06-19T05:40:10.184Z,62.28
2018-06-19T05:41:10.221Z,61.99
2018-06-19T05:42:10.215Z,62.37
2018-06-19T05:43:10.229Z,62.37
2018-06-19T05:44:10.291Z,61.89
2018-06-19T05:45:10.287Z,62.28
2018-06-19T05:46:10.283Z,61.89
2018-06-19T05:47:10.289Z,62.37
2018-06-19T05:48:10.297Z,62.37
2018-06-19T05:49:10.347Z,62.08
2018-06-19T05:50:10.332Z,62.08
2018-06-19T05:51:10.373Z,62.18
2018-06-19T05:52:10.354Z,62.18
2018-06-19T05:53:10.393Z,62.18
2018-06-19T05:54:10.408Z,61.89
2018-06-19T05:55:10.425Z,62.02
2018-06-19T05:56:10.435Z,61.92
2018-06-19T05:57:10.420Z,61.92
2018-06-19T05:58:10.449Z,61.92
2018-06-19T05:59:10.481Z,61.51
2018-06-19T06:00:10.543Z,61.99
2018-06-19T06:01:10.487Z,62.08
2018-06-19T06:02:10.529Z,61.60
2018-06-19T06:03:10.512Z,61.41
2018-06-19T06:04:10.556Z,62.18
2018-06-19T06:05:10.537Z,61.15
2018-06-19T06:06:10.556Z,60.83
2018-06-19T06:07:10.581Z,60.76
2018-06-19T06:08:10.587Z,61.05
2018-06-19T06:09:10.633Z,61.15
2018-06-19T06:10:10.641Z,60.09
2018-06-19T06:11:10.654Z,60.96
2018-06-19T06:12:10.642Z,60.09
2018-06-19T06:13:10.652Z,59.51
2018-06-19T06:14:10.673Z,59.51
2018-06-19T06:15:10.705Z,59.41
2018-06-19T06:16:10.726Z,58.73
2018-06-19T06:17:10.716Z,59.41
2018-06-19T06:18:10.721Z,59.34
2018-06-19T06:19:10.781Z,59.25
2018-06-19T06:20:10.767Z,58.54
2018-06-19T06:21:10.775Z,59.02
2018-06-19T06:22:10.832Z,58.76
2018-06-19T06:23:10.802Z,57.89
2018-06-19T06:24:10.843Z,58.37
2018-06-19T06:25:10.824Z,58.06
2018-06-19T06:26:10.847Z,58.80
2018-06-19T06:27:10.867Z,58.32
2018-06-19T06:28:10.865Z,58.51
2018-06-19T06:29:10.907Z,58.42
2018-06-19T06:30:10.900Z,59.48
2018-06-19T06:31:10.943Z,58.61
2018-06-19T06:32:10.926Z,58.64
2018-06-19T06:33:10.971Z,58.25
2018-06-19T06:34:10.957Z,59.02
2018-06-19T06:35:10.970Z,58.06
2018-06-19T06:36:11.010Z,57.48
2018-06-19T06:37:10.997Z,58.06
2018-06-19T06:38:11.074Z,58.06
2018-06-19T06:39:11.040Z,58.25
2018-06-19T06:40:11.049Z,57.57
2018-06-19T06:41:11.062Z,57.03
2018-06-19T06:42:11.072Z,57.03
2018-06-19T06:43:11.172Z,56.73
2018-06-19T06:44:11.128Z,56.73
2018-06-19T06:45:11.155Z,55.89
2018-06-19T06:46:11.127Z,55.67
2018-06-19T06:47:11.138Z,55.02
2018-06-19T06:48:11.177Z,54.73
2018-06-19T06:49:11.175Z,55.21
2018-06-19T06:50:11.229Z,53.77
2018-06-19T06:51:11.208Z,53.67
2018-06-19T06:52:11.250Z,53.79
2018-06-19T06:53:11.232Z,53.99
2018-06-19T06:54:11.251Z,53.59
2018-06-19T06:55:11.273Z,53.50
2018-06-19T06:56:11.289Z,53.11
2018-06-19T06:57:11.328Z,53.21
2018-06-19T06:58:11.339Z,53.21
2018-06-19T06:59:11.357Z,52.14
2018-06-19T07:00:11.351Z,52.44
2018-06-19T07:01:11.363Z,52.24
2018-06-19T07:02:11.412Z,50.89
2018-06-19T07:03:11.399Z,50.60
2018-06-19T07:04:11.496Z,50.79
2018-06-19T07:05:11.420Z,51.18
2018-06-19T07:06:11.439Z,51.08
2018-06-19T07:07:11.454Z,50.70
2018-06-19T07:08:11.471Z,51.08
2018-06-19T07:09:11.513Z,51.08
2018-06-19T07:10:11.599Z,51.76
2018-06-19T07:11:11.551Z,51.08
2018-06-19T07:12:11.541Z,51.56
2018-06-19T07:13:11.569Z,51.95
2018-06-19T07:14:11.560Z,52.14
2018-06-19T07:15:11.590Z,51.95
2018-06-19T07:16:11.665Z,51.86
2018-06-19T07:17:11.648Z,51.08
2018-06-19T07:18:11.650Z,50.98
2018-06-19T07:19:11.777Z,50.50
2018-06-19T07:20:11.653Z,50.31
2018-06-19T07:21:11.671Z,50.40
2018-06-19T07:22:11.721Z,50.70
2018-06-19T07:23:11.705Z,51.08
2018-06-19T07:24:11.731Z,51.28
2018-06-19T07:25:11.732Z,51.28
2018-06-19T07:26:11.802Z,51.28
2018-06-19T07:27:11.794Z,51.08
2018-06-19T07:28:11.783Z,51.47
2018-06-19T07:29:11.802Z,51.28
2018-06-19T07:30:11.838Z,50.98
2018-06-19T07:31:11.824Z,51.56
2018-06-19T07:32:11.835Z,52.05
2018-06-19T07:33:11.882Z,51.86
2018-06-19T07:34:11.951Z,51.95
2018-06-19T07:35:11.901Z,51.56
2018-06-19T07:36:11.899Z,51.86
2018-06-19T07:37:11.918Z,51.86
2018-06-19T07:38:12.132Z,50.70
2018-06-19T07:39:11.986Z,50.98
2018-06-19T07:40:12.032Z,50.79
2018-06-19T07:41:12.030Z,50.40
2018-06-19T07:42:11.993Z,50.98
2018-06-19T07:43:12.031Z,50.70
2018-06-19T07:44:12.019Z,50.79
2018-06-19T07:45:12.122Z,50.98
2018-06-19T07:46:12.073Z,50.40
2018-06-19T07:47:12.103Z,50.79
2018-06-19T07:48:12.083Z,51.08
2018-06-19T07:49:12.095Z,51.08
2018-06-19T07:50:12.117Z,51.28
2018-06-19T07:51:12.130Z,50.89
2018-06-19T07:52:12.182Z,50.98
2018-06-19T07:53:12.170Z,51.08
2018-06-19T07:54:12.174Z,50.60
2018-06-19T07:55:12.195Z,50.60
2018-06-19T07:56:12.200Z,50.12
2018-06-19T07:57:12.303Z,49.82
2018-06-19T07:58:12.237Z,49.63
2018-06-19T07:59:12.271Z,49.73
2018-06-19T08:00:12.263Z,50.12
2018-06-19T08:01:12.276Z,49.73
2018-06-19T08:02:12.324Z,49.92
2018-06-19T08:03:12.329Z,49.92
2018-06-19T08:04:12.315Z,49.44
2018-06-19T08:05:12.385Z,49.90
2018-06-19T08:06:12.365Z,49.99
2018-06-19T08:07:12.364Z,50.09
2018-06-19T08:08:12.426Z,50.12
2018-06-19T08:09:12.405Z,50.28
2018-06-19T08:10:12.439Z,49.82
2018-06-19T08:11:12.459Z,49.99
2018-06-19T08:12:12.482Z,50.38
2018-06-19T08:13:12.489Z,50.50
2018-06-19T08:14:12.482Z,50.48
2018-06-19T08:15:12.489Z,50.18
2018-06-19T08:16:12.510Z,50.28
2018-06-19T08:17:12.558Z,50.38
2018-06-19T08:18:12.577Z,50.12
2018-06-19T08:19:12.549Z,49.90
2018-06-19T08:20:12.570Z,50.18
2018-06-19T08:21:12.584Z,50.40
2018-06-19T08:22:12.596Z,50.40
2018-06-19T08:23:12.649Z,50.31
2018-06-19T08:24:12.649Z,50.50
2018-06-19T08:25:12.675Z,50.89
2018-06-19T08:26:12.746Z,50.31
2018-06-19T08:27:12.665Z,50.21
2018-06-19T08:28:12.684Z,50.02
2018-06-19T08:29:12.691Z,49.92
2018-06-19T08:30:12.776Z,50.31
2018-06-19T08:31:12.735Z,49.92
2018-06-19T08:32:12.767Z,49.15
2018-06-19T08:33:12.765Z,48.76
2018-06-19T08:34:12.795Z,48.57
2018-06-19T08:35:12.814Z,48.66
2018-06-19T08:36:12.916Z,49.15
2018-06-19T08:37:12.835Z,49.24
2018-06-19T08:38:12.914Z,49.15
2018-06-19T08:39:12.880Z,49.15
2018-06-19T08:40:12.866Z,49.73
2018-06-19T08:41:13.019Z,49.63
2018-06-19T08:42:12.899Z,49.24
2018-06-19T08:43:12.936Z,49.05
2018-06-19T08:44:12.912Z,49.34
2018-06-19T08:45:12.967Z,49.54
2018-06-19T08:46:12.973Z,50.21
2018-06-19T08:47:12.989Z,50.21
2018-06-19T08:48:12.970Z,50.02
2018-06-19T08:49:12.997Z,50.24
2018-06-19T08:50:13.002Z,49.92
2018-06-19T08:51:13.031Z,48.95
2018-06-19T08:52:13.088Z,47.81
2018-06-19T08:53:13.046Z,47.81
2018-06-19T08:54:13.097Z,47.43
2018-06-19T08:55:13.098Z,47.41
2018-06-19T08:56:13.146Z,48.20
2018-06-19T08:57:13.131Z,48.01
2018-06-19T08:58:13.132Z,48.11
2018-06-19T08:59:13.192Z,47.72
2018-06-19T09:00:13.218Z,48.49
2018-06-19T09:01:13.180Z,48.69
2018-06-19T09:02:13.215Z,48.39
2018-06-19T09:03:13.204Z,48.59
2018-06-19T09:04:13.245Z,48.69
2018-06-19T09:05:13.239Z,48.59
2018-06-19T09:06:13.249Z,49.27
2018-06-19T09:07:13.293Z,49.27
2018-06-19T09:08:13.283Z,49.56
2018-06-19T09:09:13.310Z,49.46
2018-06-19T09:10:13.346Z,48.79
2018-06-19T09:11:13.310Z,48.59
2018-06-19T09:12:13.336Z,47.91
2018-06-19T09:13:13.341Z,47.64
2018-06-19T09:14:13.363Z,47.84
2018-06-19T09:15:13.399Z,48.13
2018-06-19T09:16:13.518Z,48.03
2018-06-19T09:17:13.502Z,47.33
2018-06-19T09:18:13.449Z,46.26
2018-06-19T09:19:13.481Z,45.90
2018-06-19T09:20:13.585Z,46.39
2018-06-19T09:21:13.469Z,46.48
2018-06-19T09:22:13.511Z,46.09
2018-06-19T09:23:13.546Z,45.51
2018-06-19T09:24:13.527Z,45.81
2018-06-19T09:25:13.542Z,45.71
2018-06-19T09:26:13.562Z,45.81
2018-06-19T09:27:13.566Z,46.09
2018-06-19T09:28:13.674Z,45.81
2018-06-19T09:29:13.639Z,46.09
2018-06-19T09:30:13.623Z,46.39
2018-06-19T09:31:13.635Z,46.48
2018-06-19T09:32:13.635Z,46.29
2018-06-19T09:33:13.669Z,45.61
2018-06-19T09:34:13.695Z,46.00
2018-06-19T09:35:13.679Z,46.29
2018-06-19T09:36:13.696Z,46.19
2018-06-19T09:37:13.703Z,46.19
2018-06-19T09:38:13.746Z,46.09
2018-06-19T09:39:13.931Z,45.83
2018-06-19T09:40:13.756Z,45.54
2018-06-19T09:41:13.785Z,45.34
2018-06-19T09:42:13.791Z,44.57
2018-06-19T09:43:13.815Z,44.57
2018-06-19T09:44:13.849Z,45.25
2018-06-19T09:45:13.930Z,44.67
2018-06-19T09:46:13.845Z,44.67
2018-06-19T09:47:13.869Z,44.09
2018-06-19T09:48:13.876Z,44.67
2018-06-19T09:49:13.906Z,44.76
2018-06-19T09:50:13.961Z,44.18
2018-06-19T09:51:13.956Z,44.09
2018-06-19T09:52:13.948Z,44.18
2018-06-19T09:53:13.954Z,44.18
2018-06-19T09:54:13.978Z,44.27
2018-06-19T09:55:14.024Z,44.10
2018-06-19T09:56:14.011Z,44.20
2018-06-19T09:57:14.062Z,44.30
2018-06-19T09:58:14.172Z,44.20
2018-06-19T09:59:14.130Z,43.72
2018-06-19T10:00:14.109Z,44.10
2018-06-19T10:01:14.136Z,43.89
2018-06-19T10:02:14.191Z,44.09
2018-06-19T10:03:14.147Z,44.37
2018-06-19T10:04:14.136Z,44.59
2018-06-19T10:05:14.160Z,44.78
2018-06-19T10:06:14.162Z,44.98
2018-06-19T10:07:14.186Z,45.47
2018-06-19T10:08:14.386Z,45.37
2018-06-19T10:09:14.236Z,44.78
2018-06-19T10:10:14.239Z,45.37
2018-06-19T10:11:14.249Z,44.78
2018-06-19T10:12:14.410Z,44.61
2018-06-19T10:13:14.310Z,44.10
2018-06-19T10:14:14.374Z,43.72
2018-06-19T10:15:14.350Z,43.33
2018-06-19T10:16:14.313Z,42.94
2018-06-19T10:17:14.366Z,43.33
2018-06-19T10:18:14.413Z,42.85
2018-06-19T10:19:14.429Z,43.52
2018-06-19T10:20:14.377Z,43.72
2018-06-19T10:21:14.397Z,43.52
2018-06-19T10:22:14.422Z,43.64
2018-06-19T10:23:14.437Z,43.64
2018-06-19T10:24:14.470Z,43.64
2018-06-19T10:25:14.558Z,43.64
2018-06-19T10:26:14.469Z,43.74
2018-06-19T10:27:14.795Z,42.96
2018-06-19T10:28:14.511Z,42.57
2018-06-19T10:29:14.555Z,42.48
2018-06-19T10:30:14.541Z,42.75
2018-06-19T10:31:14.572Z,43.04
2018-06-19T10:32:14.590Z,43.72
2018-06-19T10:33:14.646Z,43.74
2018-06-19T10:34:14.664Z,43.54
2018-06-19T10:35:14.692Z,43.74
2018-06-19T10:36:14.648Z,43.54
2018-06-19T10:37:14.662Z,43.74
2018-06-19T10:38:14.721Z,43.64
2018-06-19T10:39:14.726Z,42.77
2018-06-19T10:40:14.750Z,42.67
2018-06-19T10:41:14.735Z,43.16
2018-06-19T10:42:14.798Z,43.06
2018-06-19T10:43:14.795Z,43.06
2018-06-19T10:44:14.850Z,43.16
2018-06-19T10:45:14.916Z,42.29
2018-06-19T10:46:14.811Z,42.19
2018-06-19T10:47:14.890Z,42.48
2018-06-19T10:48:14.838Z,42.09
2018-06-19T10:49:14.838Z,41.99
2018-06-19T10:50:14.879Z,41.89
2018-06-19T10:51:14.919Z,42.09
2018-06-19T10:52:14.989Z,42.19
2018-06-19T10:53:14.903Z,41.89
2018-06-19T10:54:14.984Z,42.48
2018-06-19T10:55:14.945Z,42.29
2018-06-19T10:56:14.950Z,42.09
2018-06-19T10:57:15.002Z,42.38
2018-06-19T10:58:15.026Z,42.67
2018-06-19T10:59:15.043Z,42.48
2018-06-19T11:00:15.025Z,42.50
2018-06-19T11:01:15.040Z,42.69
2018-06-19T11:02:15.066Z,42.38
2018-06-19T11:03:15.078Z,42.79
2018-06-19T11:04:15.119Z,42.99
2018-06-19T11:05:15.113Z,42.57
2018-06-19T11:06:15.123Z,42.89
2018-06-19T11:07:15.251Z,42.69
2018-06-19T11:08:15.248Z,42.79
2018-06-19T11:09:15.249Z,42.99
2018-06-19T11:10:15.191Z,42.89
2018-06-19T11:11:15.203Z,42.79
2018-06-19T11:12:15.221Z,43.57
2018-06-19T11:13:15.242Z,43.66
2018-06-19T11:14:15.255Z,43.76
2018-06-19T11:15:15.401Z,43.20
2018-06-19T11:16:15.284Z,42.81
2018-06-19T11:17:15.338Z,42.91
2018-06-19T11:18:15.303Z,42.71
2018-06-19T11:19:15.362Z,42.43
2018-06-19T11:20:15.347Z,42.52
2018-06-19T11:21:15.873Z,41.94
2018-06-19T11:22:15.379Z,42.03
2018-06-19T11:23:15.392Z,42.33
2018-06-19T11:24:15.444Z,41.64
2018-06-19T11:25:15.452Z,41.36
2018-06-19T11:26:15.454Z,41.06
2018-06-19T11:27:15.510Z,41.26
2018-06-19T11:28:15.520Z,41.26
2018-06-19T11:29:15.522Z,41.16
2018-06-19T11:30:15.548Z,41.26
2018-06-19T11:31:15.532Z,40.97
2018-06-19T11:32:15.578Z,40.97
2018-06-19T11:33:15.582Z,40.87
2018-06-19T11:34:15.580Z,41.45
2018-06-19T11:35:15.588Z,41.26
2018-06-19T11:36:15.639Z,41.06
2018-06-19T11:37:15.630Z,41.16
2018-06-19T11:38:15.676Z,41.16
2018-06-19T11:39:15.709Z,40.97
2018-06-19T11:40:15.664Z,41.18
2018-06-19T11:41:15.712Z,41.26
2018-06-19T11:42:15.802Z,41.16
2018-06-19T11:43:15.734Z,41.16
2018-06-19T11:44:15.758Z,41.16
2018-06-19T11:45:15.835Z,41.06
2018-06-19T11:46:15.771Z,40.77
2018-06-19T11:47:15.786Z,40.97
2018-06-19T11:48:15.800Z,40.58
2018-06-19T11:49:15.849Z,40.67
2018-06-19T11:50:15.918Z,40.58
2018-06-19T11:51:15.879Z,40.58
2018-06-19T11:52:15.889Z,40.87
2018-06-19T11:53:15.892Z,40.77
2018-06-19T11:54:15.892Z,40.67
2018-06-19T11:55:15.918Z,40.48
2018-06-19T11:56:15.974Z,40.97
2018-06-19T11:57:16.000Z,41.16
2018-06-19T11:58:16.004Z,40.77
2018-06-19T11:59:15.987Z,40.97
2018-06-19T12:00:16.012Z,41.06
2018-06-19T12:01:16.073Z,41.26
2018-06-19T12:02:16.025Z,41.16
2018-06-19T12:03:16.071Z,41.36
2018-06-19T12:04:16.066Z,41.26
2018-06-19T12:05:16.075Z,41.26
2018-06-19T12:06:16.128Z,41.16
2018-06-19T12:07:16.121Z,41.06
2018-06-19T12:08:16.124Z,41.06
2018-06-19T12:09:16.228Z,41.26
2018-06-19T12:10:16.177Z,40.85
2018-06-19T12:11:16.198Z,41.06
2018-06-19T12:12:16.196Z,41.55
2018-06-19T12:13:16.268Z,41.36
2018-06-19T12:14:16.264Z,41.06
2018-06-19T12:15:16.362Z,41.24
2018-06-19T12:16:16.278Z,41.36
2018-06-19T12:17:16.279Z,41.26
2018-06-19T12:18:16.290Z,40.95
2018-06-19T12:19:16.437Z,40.87
2018-06-19T12:20:16.357Z,41.26
2018-06-19T12:21:16.368Z,41.45
2018-06-19T12:22:16.360Z,41.26
2018-06-19T12:23:16.387Z,41.06
2018-06-19T12:24:16.427Z,40.97
2018-06-19T12:25:16.539Z,41.26
2018-06-19T12:26:16.435Z,41.06
2018-06-19T12:27:16.477Z,41.06
2018-06-19T12:28:16.465Z,41.06
2018-06-19T12:29:16.503Z,41.64
2018-06-19T12:30:16.524Z,41.16
2018-06-19T12:31:16.549Z,41.06
2018-06-19T12:32:16.517Z,41.16
2018-06-19T12:33:16.599Z,40.97
2018-06-19T12:34:16.582Z,41.84
2018-06-19T12:35:16.587Z,41.26
2018-06-19T12:36:16.596Z,41.06
2018-06-19T12:37:16.620Z,41.16
2018-06-19T12:38:16.649Z,41.26
2018-06-19T12:39:16.676Z,41.36
2018-06-19T12:40:16.670Z,41.16
2018-06-19T12:41:16.681Z,41.16
2018-06-19T12:42:16.727Z,41.16
2018-06-19T12:43:16.708Z,41.16
2018-06-19T12:44:16.953Z,41.06
2018-06-19T12:45:16.729Z,41.45
2018-06-19T12:46:16.746Z,41.36
2018-06-19T12:47:16.808Z,41.94
2018-06-19T12:48:16.788Z,41.74
2018-06-19T12:49:16.799Z,41.64
2018-06-19T12:50:16.811Z,41.55
2018-06-19T12:51:16.824Z,41.36
2018-06-19T12:52:16.889Z,41.16